sensor_id;sensor_type;location;lat;lon;timestamp;P1;durP1;ratioP1;P2;durP2;ratioP2
2299;SDS011;1158;48.750;9.078;2022-08-25T00:01:09;6.47;;;5.23;;
2299;SDS011;1158;48.750;9.078;2022-08-25T00:03:39;5.93;;;5.27;;
2299;SDS011;1158;48.750;9.078;2022-08-25T00:06:06;7.70;;;5.50;;
2299;SDS011;1158;48.750;9.078;2022-08-25T00:08:34;7.73;;;5.90;;
2299;SDS011;1158;48.750;9.078;2022-08-25T00:11:02;5.70;;;5.10;;
2299;SDS011;1158;48.750;9.078;2022-08-25T00:13:30;5.70;;;5.10;;
2299;SDS011;1158;48.750;9.078;2022-08-25T00:15:57;6.50;;;5.63;;
2299;SDS011;1158;48.750;9.078;2022-08-25T00:18:25;6.13;;;5.10;;
2299;SDS011;1158;48.750;9.078;2022-08-25T00:20:53;7.90;;;6.50;;
2299;SDS011;1158;48.750;9.078;2022-08-25T00:23:20;10.83;;;5.80;;
2299;SDS011;1158;48.750;9.078;2022-08-25T00:25:47;6.90;;;5.80;;
2299;SDS011;1158;48.750;9.078;2022-08-25T00:28:14;6.43;;;5.50;;
2299;SDS011;1158;48.750;9.078;2022-08-25T00:30:42;7.43;;;5.30;;
2299;SDS011;1158;48.750;9.078;2022-08-25T00:33:09;7.43;;;6.53;;
2299;SDS011;1158;48.750;9.078;2022-08-25T00:35:36;6.70;;;5.67;;
2299;SDS011;1158;48.750;9.078;2022-08-25T00:38:05;8.00;;;5.80;;
2299;SDS011;1158;48.750;9.078;2022-08-25T00:40:32;9.10;;;5.93;;
2299;SDS011;1158;48.750;9.078;2022-08-25T00:42:59;6.23;;;5.60;;
2299;SDS011;1158;48.750;9.078;2022-08-25T00:45:26;7.13;;;5.80;;
2299;SDS011;1158;48.750;9.078;2022-08-25T00:47:53;8.50;;;6.23;;
2299;SDS011;1158;48.750;9.078;2022-08-25T00:50:19;6.40;;;5.70;;
2299;SDS011;1158;48.750;9.078;2022-08-25T00:52:48;7.03;;;6.33;;
2299;SDS011;1158;48.750;9.078;2022-08-25T00:55:21;8.83;;;7.13;;
2299;SDS011;1158;48.750;9.078;2022-08-25T00:57:52;6.73;;;6.03;;
2299;SDS011;1158;48.750;9.078;2022-08-25T01:00:25;6.53;;;5.90;;
2299;SDS011;1158;48.750;9.078;2022-08-25T01:02:54;6.90;;;6.03;;
2299;SDS011;1158;48.750;9.078;2022-08-25T01:05:22;7.90;;;6.27;;
2299;SDS011;1158;48.750;9.078;2022-08-25T01:07:49;8.70;;;6.47;;
2299;SDS011;1158;48.750;9.078;2022-08-25T01:10:17;10.00;;;5.80;;
2299;SDS011;1158;48.750;9.078;2022-08-25T01:12:47;6.33;;;5.70;;
2299;SDS011;1158;48.750;9.078;2022-08-25T01:15:15;7.53;;;5.90;;
2299;SDS011;1158;48.750;9.078;2022-08-25T01:17:45;7.57;;;5.87;;
2299;SDS011;1158;48.750;9.078;2022-08-25T01:20:13;11.13;;;6.67;;
2299;SDS011;1158;48.750;9.078;2022-08-25T01:22:42;7.00;;;6.30;;
2299;SDS011;1158;48.750;9.078;2022-08-25T01:25:13;13.20;;;6.33;;
2299;SDS011;1158;48.750;9.078;2022-08-25T01:27:47;6.83;;;6.00;;
2299;SDS011;1158;48.750;9.078;2022-08-25T01:30:14;8.33;;;6.23;;
2299;SDS011;1158;48.750;9.078;2022-08-25T01:32:40;8.30;;;6.30;;
2299;SDS011;1158;48.750;9.078;2022-08-25T01:35:07;8.43;;;6.23;;
2299;SDS011;1158;48.750;9.078;2022-08-25T01:37:34;7.23;;;6.20;;
2299;SDS011;1158;48.750;9.078;2022-08-25T01:40:03;7.57;;;6.47;;
2299;SDS011;1158;48.750;9.078;2022-08-25T01:42:32;7.90;;;6.20;;
2299;SDS011;1158;48.750;9.078;2022-08-25T01:45:07;8.30;;;7.30;;
2299;SDS011;1158;48.750;9.078;2022-08-25T01:47:35;6.90;;;6.10;;
2299;SDS011;1158;48.750;9.078;2022-08-25T01:50:03;10.20;;;5.87;;
2299;SDS011;1158;48.750;9.078;2022-08-25T01:52:32;6.90;;;6.20;;
2299;SDS011;1158;48.750;9.078;2022-08-25T01:55:03;8.00;;;6.60;;
2299;SDS011;1158;48.750;9.078;2022-08-25T01:57:31;8.23;;;6.80;;
2299;SDS011;1158;48.750;9.078;2022-08-25T01:59:57;7.50;;;6.53;;
2299;SDS011;1158;48.750;9.078;2022-08-25T02:02:25;10.53;;;6.13;;
2299;SDS011;1158;48.750;9.078;2022-08-25T02:04:52;8.60;;;7.07;;
2299;SDS011;1158;48.750;9.078;2022-08-25T02:07:19;8.57;;;6.97;;
2299;SDS011;1158;48.750;9.078;2022-08-25T02:09:45;7.20;;;5.87;;
2299;SDS011;1158;48.750;9.078;2022-08-25T02:12:13;7.20;;;5.90;;
2299;SDS011;1158;48.750;9.078;2022-08-25T02:14:40;8.03;;;7.13;;
2299;SDS011;1158;48.750;9.078;2022-08-25T02:17:07;9.00;;;7.07;;
2299;SDS011;1158;48.750;9.078;2022-08-25T02:19:34;7.30;;;6.57;;
2299;SDS011;1158;48.750;9.078;2022-08-25T02:22:01;8.90;;;7.30;;
2299;SDS011;1158;48.750;9.078;2022-08-25T02:24:28;9.90;;;7.20;;
2299;SDS011;1158;48.750;9.078;2022-08-25T02:26:55;7.50;;;6.67;;
2299;SDS011;1158;48.750;9.078;2022-08-25T02:29:24;7.80;;;7.00;;
2299;SDS011;1158;48.750;9.078;2022-08-25T02:31:51;8.13;;;7.00;;
2299;SDS011;1158;48.750;9.078;2022-08-25T02:34:18;8.17;;;7.13;;
2299;SDS011;1158;48.750;9.078;2022-08-25T02:36:44;8.00;;;6.90;;
2299;SDS011;1158;48.750;9.078;2022-08-25T02:39:11;8.07;;;6.83;;
2299;SDS011;1158;48.750;9.078;2022-08-25T02:41:38;9.23;;;7.30;;
2299;SDS011;1158;48.750;9.078;2022-08-25T02:44:05;8.20;;;7.30;;
2299;SDS011;1158;48.750;9.078;2022-08-25T02:46:34;7.87;;;6.93;;
2299;SDS011;1158;48.750;9.078;2022-08-25T02:49:02;8.63;;;6.60;;
2299;SDS011;1158;48.750;9.078;2022-08-25T02:51:29;7.70;;;6.70;;
2299;SDS011;1158;48.750;9.078;2022-08-25T02:53:58;8.00;;;6.43;;
2299;SDS011;1158;48.750;9.078;2022-08-25T02:56:27;9.10;;;6.90;;
2299;SDS011;1158;48.750;9.078;2022-08-25T02:58:55;8.57;;;7.53;;
2299;SDS011;1158;48.750;9.078;2022-08-25T03:01:22;7.53;;;6.73;;
2299;SDS011;1158;48.750;9.078;2022-08-25T03:03:50;7.77;;;6.97;;
2299;SDS011;1158;48.750;9.078;2022-08-25T03:06:18;8.80;;;6.77;;
2299;SDS011;1158;48.750;9.078;2022-08-25T03:08:48;10.07;;;7.73;;
2299;SDS011;1158;48.750;9.078;2022-08-25T03:11:15;12.13;;;6.73;;
2299;SDS011;1158;48.750;9.078;2022-08-25T03:13:42;8.33;;;6.90;;
2299;SDS011;1158;48.750;9.078;2022-08-25T03:16:09;10.00;;;7.07;;
2299;SDS011;1158;48.750;9.078;2022-08-25T03:18:36;9.73;;;7.17;;
2299;SDS011;1158;48.750;9.078;2022-08-25T03:21:05;9.20;;;7.23;;
2299;SDS011;1158;48.750;9.078;2022-08-25T03:23:32;7.40;;;6.33;;
2299;SDS011;1158;48.750;9.078;2022-08-25T03:25:59;8.90;;;6.70;;
2299;SDS011;1158;48.750;9.078;2022-08-25T03:28:43;8.50;;;6.80;;
2299;SDS011;1158;48.750;9.078;2022-08-25T03:31:09;8.10;;;7.10;;
2299;SDS011;1158;48.750;9.078;2022-08-25T03:33:36;10.10;;;7.60;;
2299;SDS011;1158;48.750;9.078;2022-08-25T03:36:05;7.77;;;6.97;;
2299;SDS011;1158;48.750;9.078;2022-08-25T03:38:33;11.10;;;7.70;;
2299;SDS011;1158;48.750;9.078;2022-08-25T03:41:00;9.20;;;7.60;;
2299;SDS011;1158;48.750;9.078;2022-08-25T03:43:27;8.40;;;7.47;;
2299;SDS011;1158;48.750;9.078;2022-08-25T03:45:54;9.53;;;7.47;;
2299;SDS011;1158;48.750;9.078;2022-08-25T03:48:20;7.70;;;6.70;;
2299;SDS011;1158;48.750;9.078;2022-08-25T03:50:48;9.00;;;7.10;;
2299;SDS011;1158;48.750;9.078;2022-08-25T03:53:20;9.50;;;7.07;;
2299;SDS011;1158;48.750;9.078;2022-08-25T03:55:47;10.00;;;7.70;;
2299;SDS011;1158;48.750;9.078;2022-08-25T03:58:13;9.17;;;6.97;;
2299;SDS011;1158;48.750;9.078;2022-08-25T04:00:42;10.37;;;7.73;;
2299;SDS011;1158;48.750;9.078;2022-08-25T04:03:08;9.20;;;7.50;;
2299;SDS011;1158;48.750;9.078;2022-08-25T04:05:35;11.50;;;7.50;;
2299;SDS011;1158;48.750;9.078;2022-08-25T04:08:02;9.27;;;7.77;;
2299;SDS011;1158;48.750;9.078;2022-08-25T04:10:30;9.93;;;7.30;;
2299;SDS011;1158;48.750;9.078;2022-08-25T04:12:58;9.00;;;7.10;;
2299;SDS011;1158;48.750;9.078;2022-08-25T04:15:25;8.47;;;7.43;;
2299;SDS011;1158;48.750;9.078;2022-08-25T04:17:52;11.73;;;7.80;;
2299;SDS011;1158;48.750;9.078;2022-08-25T04:20:19;10.17;;;7.33;;
2299;SDS011;1158;48.750;9.078;2022-08-25T04:22:46;9.40;;;7.30;;
2299;SDS011;1158;48.750;9.078;2022-08-25T04:25:12;10.30;;;8.00;;
2299;SDS011;1158;48.750;9.078;2022-08-25T04:27:41;8.90;;;7.23;;
2299;SDS011;1158;48.750;9.078;2022-08-25T04:30:08;9.20;;;7.70;;
2299;SDS011;1158;48.750;9.078;2022-08-25T04:32:35;8.40;;;7.47;;
2299;SDS011;1158;48.750;9.078;2022-08-25T04:35:02;10.63;;;7.47;;
2299;SDS011;1158;48.750;9.078;2022-08-25T04:37:29;8.70;;;6.60;;
2299;SDS011;1158;48.750;9.078;2022-08-25T04:39:57;9.60;;;7.90;;
2299;SDS011;1158;48.750;9.078;2022-08-25T04:42:23;9.63;;;6.50;;
2299;SDS011;1158;48.750;9.078;2022-08-25T04:44:52;8.60;;;6.93;;
2299;SDS011;1158;48.750;9.078;2022-08-25T04:47:19;8.00;;;6.27;;
2299;SDS011;1158;48.750;9.078;2022-08-25T04:49:46;11.50;;;8.70;;
2299;SDS011;1158;48.750;9.078;2022-08-25T04:52:13;8.93;;;7.77;;
2299;SDS011;1158;48.750;9.078;2022-08-25T04:54:40;9.73;;;7.70;;
2299;SDS011;1158;48.750;9.078;2022-08-25T04:57:06;7.67;;;6.90;;
2299;SDS011;1158;48.750;9.078;2022-08-25T04:59:33;9.33;;;6.87;;
2299;SDS011;1158;48.750;9.078;2022-08-25T05:02:02;8.50;;;7.33;;
2299;SDS011;1158;48.750;9.078;2022-08-25T05:04:30;9.70;;;8.10;;
2299;SDS011;1158;48.750;9.078;2022-08-25T05:06:58;9.43;;;7.70;;
2299;SDS011;1158;48.750;9.078;2022-08-25T05:09:26;10.70;;;7.77;;
2299;SDS011;1158;48.750;9.078;2022-08-25T05:11:53;7.80;;;7.00;;
2299;SDS011;1158;48.750;9.078;2022-08-25T05:14:20;9.70;;;7.77;;
2299;SDS011;1158;48.750;9.078;2022-08-25T05:16:47;10.33;;;8.30;;
2299;SDS011;1158;48.750;9.078;2022-08-25T05:19:15;10.37;;;8.27;;
2299;SDS011;1158;48.750;9.078;2022-08-25T05:21:42;8.80;;;7.37;;
2299;SDS011;1158;48.750;9.078;2022-08-25T05:24:09;10.93;;;7.33;;
2299;SDS011;1158;48.750;9.078;2022-08-25T05:26:36;8.90;;;7.73;;
2299;SDS011;1158;48.750;9.078;2022-08-25T05:29:03;12.30;;;7.13;;
2299;SDS011;1158;48.750;9.078;2022-08-25T05:31:30;8.17;;;6.20;;
2299;SDS011;1158;48.750;9.078;2022-08-25T05:33:57;6.33;;;5.60;;
2299;SDS011;1158;48.750;9.078;2022-08-25T05:36:26;4.90;;;4.40;;
2299;SDS011;1158;48.750;9.078;2022-08-25T05:38:54;5.47;;;4.70;;
2299;SDS011;1158;48.750;9.078;2022-08-25T05:41:25;4.33;;;3.93;;
2299;SDS011;1158;48.750;9.078;2022-08-25T05:43:53;5.57;;;4.90;;
2299;SDS011;1158;48.750;9.078;2022-08-25T05:46:20;4.40;;;3.93;;
2299;SDS011;1158;48.750;9.078;2022-08-25T05:48:47;5.57;;;4.27;;
2299;SDS011;1158;48.750;9.078;2022-08-25T05:51:15;4.73;;;3.60;;
2299;SDS011;1158;48.750;9.078;2022-08-25T05:53:44;5.30;;;3.77;;
2299;SDS011;1158;48.750;9.078;2022-08-25T05:56:13;5.53;;;3.83;;
2299;SDS011;1158;48.750;9.078;2022-08-25T05:58:40;4.63;;;3.73;;
2299;SDS011;1158;48.750;9.078;2022-08-25T06:01:07;4.37;;;3.53;;
2299;SDS011;1158;48.750;9.078;2022-08-25T06:03:53;4.00;;;3.23;;
2299;SDS011;1158;48.750;9.078;2022-08-25T06:06:20;6.40;;;4.07;;
2299;SDS011;1158;48.750;9.078;2022-08-25T06:08:49;3.73;;;3.33;;
2299;SDS011;1158;48.750;9.078;2022-08-25T06:11:16;4.50;;;3.80;;
2299;SDS011;1158;48.750;9.078;2022-08-25T06:13:43;4.30;;;3.70;;
2299;SDS011;1158;48.750;9.078;2022-08-25T06:16:10;4.67;;;3.70;;
2299;SDS011;1158;48.750;9.078;2022-08-25T06:18:37;4.10;;;3.70;;
2299;SDS011;1158;48.750;9.078;2022-08-25T06:21:08;5.97;;;4.50;;
2299;SDS011;1158;48.750;9.078;2022-08-25T06:23:36;4.37;;;3.97;;
2299;SDS011;1158;48.750;9.078;2022-08-25T06:26:06;4.13;;;3.57;;
2299;SDS011;1158;48.750;9.078;2022-08-25T06:28:35;4.63;;;3.60;;
2299;SDS011;1158;48.750;9.078;2022-08-25T06:31:02;7.07;;;4.10;;
2299;SDS011;1158;48.750;9.078;2022-08-25T06:33:29;7.07;;;4.60;;
2299;SDS011;1158;48.750;9.078;2022-08-25T06:35:56;6.40;;;4.80;;
2299;SDS011;1158;48.750;9.078;2022-08-25T06:38:23;10.00;;;4.87;;
2299;SDS011;1158;48.750;9.078;2022-08-25T06:40:51;8.47;;;5.47;;
2299;SDS011;1158;48.750;9.078;2022-08-25T06:43:19;7.40;;;4.73;;
2299;SDS011;1158;48.750;9.078;2022-08-25T06:45:46;8.10;;;5.10;;
2299;SDS011;1158;48.750;9.078;2022-08-25T06:48:13;6.13;;;5.10;;
2299;SDS011;1158;48.750;9.078;2022-08-25T06:50:41;6.47;;;5.40;;
2299;SDS011;1158;48.750;9.078;2022-08-25T06:53:08;7.80;;;6.40;;
2299;SDS011;1158;48.750;9.078;2022-08-25T06:55:36;6.50;;;5.80;;
2299;SDS011;1158;48.750;9.078;2022-08-25T06:58:03;9.50;;;6.20;;
2299;SDS011;1158;48.750;9.078;2022-08-25T07:00:31;7.50;;;6.70;;
2299;SDS011;1158;48.750;9.078;2022-08-25T07:02:58;7.80;;;6.37;;
2299;SDS011;1158;48.750;9.078;2022-08-25T07:05:25;7.27;;;6.20;;
2299;SDS011;1158;48.750;9.078;2022-08-25T07:07:52;7.60;;;6.80;;
2299;SDS011;1158;48.750;9.078;2022-08-25T07:10:19;6.20;;;5.60;;
2299;SDS011;1158;48.750;9.078;2022-08-25T07:12:46;9.83;;;6.30;;
2299;SDS011;1158;48.750;9.078;2022-08-25T07:15:13;6.97;;;5.50;;
2299;SDS011;1158;48.750;9.078;2022-08-25T07:17:41;9.10;;;6.60;;
2299;SDS011;1158;48.750;9.078;2022-08-25T07:20:08;7.60;;;6.30;;
2299;SDS011;1158;48.750;9.078;2022-08-25T07:22:35;6.60;;;6.00;;
2299;SDS011;1158;48.750;9.078;2022-08-25T07:25:02;6.70;;;6.00;;
2299;SDS011;1158;48.750;9.078;2022-08-25T07:27:29;7.30;;;5.67;;
2299;SDS011;1158;48.750;9.078;2022-08-25T07:29:56;6.10;;;5.50;;
2299;SDS011;1158;48.750;9.078;2022-08-25T07:32:23;5.63;;;5.03;;
2299;SDS011;1158;48.750;9.078;2022-08-25T07:34:51;7.10;;;5.93;;
2299;SDS011;1158;48.750;9.078;2022-08-25T07:37:36;5.93;;;5.10;;
2299;SDS011;1158;48.750;9.078;2022-08-25T07:40:04;8.70;;;6.70;;
2299;SDS011;1158;48.750;9.078;2022-08-25T07:42:32;7.00;;;6.23;;
2299;SDS011;1158;48.750;9.078;2022-08-25T07:44:59;6.30;;;5.30;;
2299;SDS011;1158;48.750;9.078;2022-08-25T07:47:26;7.53;;;5.70;;
2299;SDS011;1158;48.750;9.078;2022-08-25T07:49:54;6.50;;;5.83;;
2299;SDS011;1158;48.750;9.078;2022-08-25T07:52:21;7.30;;;5.80;;
2299;SDS011;1158;48.750;9.078;2022-08-25T07:54:48;6.37;;;5.77;;
2299;SDS011;1158;48.750;9.078;2022-08-25T07:57:17;7.63;;;6.10;;
2299;SDS011;1158;48.750;9.078;2022-08-25T07:59:46;8.70;;;6.30;;
2299;SDS011;1158;48.750;9.078;2022-08-25T08:02:13;6.73;;;5.70;;
2299;SDS011;1158;48.750;9.078;2022-08-25T08:04:40;8.43;;;6.57;;
2299;SDS011;1158;48.750;9.078;2022-08-25T08:07:08;8.27;;;6.70;;
2299;SDS011;1158;48.750;9.078;2022-08-25T08:09:35;7.00;;;6.30;;
2299;SDS011;1158;48.750;9.078;2022-08-25T08:12:02;7.50;;;6.40;;
2299;SDS011;1158;48.750;9.078;2022-08-25T08:14:29;5.93;;;5.33;;
2299;SDS011;1158;48.750;9.078;2022-08-25T08:16:56;6.17;;;5.57;;
2299;SDS011;1158;48.750;9.078;2022-08-25T08:19:22;7.63;;;6.27;;
2299;SDS011;1158;48.750;9.078;2022-08-25T08:21:49;5.90;;;5.13;;
2299;SDS011;1158;48.750;9.078;2022-08-25T08:24:18;6.00;;;5.40;;
2299;SDS011;1158;48.750;9.078;2022-08-25T08:26:44;6.60;;;5.80;;
2299;SDS011;1158;48.750;9.078;2022-08-25T08:29:11;7.23;;;6.27;;
2299;SDS011;1158;48.750;9.078;2022-08-25T08:31:39;5.77;;;5.17;;
2299;SDS011;1158;48.750;9.078;2022-08-25T08:34:06;6.37;;;5.73;;
2299;SDS011;1158;48.750;9.078;2022-08-25T08:36:32;6.77;;;5.67;;
2299;SDS011;1158;48.750;9.078;2022-08-25T08:38:59;7.23;;;6.10;;
2299;SDS011;1158;48.750;9.078;2022-08-25T08:44:40;6.93;;;6.07;;
2299;SDS011;1158;48.750;9.078;2022-08-25T08:47:15;7.53;;;6.10;;
2299;SDS011;1158;48.750;9.078;2022-08-25T08:49:51;7.33;;;5.23;;
2299;SDS011;1158;48.750;9.078;2022-08-25T08:52:29;9.33;;;7.10;;
2299;SDS011;1158;48.750;9.078;2022-08-25T08:55:04;11.53;;;5.70;;
2299;SDS011;1158;48.750;9.078;2022-08-25T08:57:42;8.47;;;6.00;;
2299;SDS011;1158;48.750;9.078;2022-08-25T09:00:13;6.93;;;5.30;;
2299;SDS011;1158;48.750;9.078;2022-08-25T09:02:42;7.17;;;5.67;;
2299;SDS011;1158;48.750;9.078;2022-08-25T09:05:16;6.60;;;6.00;;
2299;SDS011;1158;48.750;9.078;2022-08-25T09:07:45;7.07;;;6.00;;
2299;SDS011;1158;48.750;9.078;2022-08-25T09:10:16;6.93;;;6.10;;
2299;SDS011;1158;48.750;9.078;2022-08-25T09:12:47;5.77;;;5.20;;
2299;SDS011;1158;48.750;9.078;2022-08-25T09:15:24;6.10;;;5.30;;
2299;SDS011;1158;48.750;9.078;2022-08-25T09:18:16;7.97;;;5.57;;
2299;SDS011;1158;48.750;9.078;2022-08-25T09:20:53;6.13;;;5.50;;
2299;SDS011;1158;48.750;9.078;2022-08-25T09:23:32;6.63;;;5.70;;
2299;SDS011;1158;48.750;9.078;2022-08-25T09:26:11;6.70;;;5.80;;
2299;SDS011;1158;48.750;9.078;2022-08-25T09:28:49;8.07;;;5.80;;
2299;SDS011;1158;48.750;9.078;2022-08-25T09:31:21;7.23;;;5.03;;
2299;SDS011;1158;48.750;9.078;2022-08-25T09:33:50;6.33;;;5.70;;
2299;SDS011;1158;48.750;9.078;2022-08-25T09:36:21;6.50;;;5.80;;
2299;SDS011;1158;48.750;9.078;2022-08-25T09:38:47;8.47;;;5.83;;
2299;SDS011;1158;48.750;9.078;2022-08-25T09:41:15;6.90;;;5.37;;
2299;SDS011;1158;48.750;9.078;2022-08-25T09:43:43;6.10;;;5.50;;
2299;SDS011;1158;48.750;9.078;2022-08-25T09:46:22;7.57;;;5.97;;
2299;SDS011;1158;48.750;9.078;2022-08-25T09:48:52;7.00;;;5.20;;
2299;SDS011;1158;48.750;9.078;2022-08-25T09:51:23;5.27;;;4.33;;
2299;SDS011;1158;48.750;9.078;2022-08-25T09:53:53;5.20;;;4.43;;
2299;SDS011;1158;48.750;9.078;2022-08-25T09:56:22;6.90;;;4.50;;
2299;SDS011;1158;48.750;9.078;2022-08-25T09:58:54;9.23;;;5.63;;
2299;SDS011;1158;48.750;9.078;2022-08-25T10:01:25;5.07;;;4.40;;
2299;SDS011;1158;48.750;9.078;2022-08-25T10:03:53;6.07;;;5.00;;
2299;SDS011;1158;48.750;9.078;2022-08-25T10:06:22;6.10;;;4.93;;
2299;SDS011;1158;48.750;9.078;2022-08-25T10:08:52;5.60;;;4.87;;
2299;SDS011;1158;48.750;9.078;2022-08-25T10:11:30;6.33;;;4.80;;
2299;SDS011;1158;48.750;9.078;2022-08-25T10:14:00;7.43;;;4.70;;
2299;SDS011;1158;48.750;9.078;2022-08-25T10:16:30;6.00;;;5.13;;
2299;SDS011;1158;48.750;9.078;2022-08-25T10:19:03;9.40;;;5.30;;
2299;SDS011;1158;48.750;9.078;2022-08-25T10:21:33;8.50;;;4.80;;
2299;SDS011;1158;48.750;9.078;2022-08-25T10:24:00;5.80;;;4.80;;
2299;SDS011;1158;48.750;9.078;2022-08-25T10:26:33;7.00;;;5.20;;
2299;SDS011;1158;48.750;9.078;2022-08-25T10:29:12;5.13;;;4.63;;
2299;SDS011;1158;48.750;9.078;2022-08-25T10:31:51;7.00;;;5.30;;
2299;SDS011;1158;48.750;9.078;2022-08-25T10:34:24;6.33;;;5.17;;
2299;SDS011;1158;48.750;9.078;2022-08-25T10:37:01;5.43;;;4.40;;
2299;SDS011;1158;48.750;9.078;2022-08-25T10:39:38;6.10;;;4.83;;
2299;SDS011;1158;48.750;9.078;2022-08-25T10:42:19;4.83;;;4.33;;
2299;SDS011;1158;48.750;9.078;2022-08-25T10:45:00;7.30;;;4.80;;
2299;SDS011;1158;48.750;9.078;2022-08-25T10:48:06;5.00;;;4.50;;
2299;SDS011;1158;48.750;9.078;2022-08-25T10:50:43;5.83;;;5.33;;
2299;SDS011;1158;48.750;9.078;2022-08-25T10:53:17;5.40;;;4.77;;
2299;SDS011;1158;48.750;9.078;2022-08-25T10:55:55;7.27;;;5.17;;
2299;SDS011;1158;48.750;9.078;2022-08-25T10:58:33;6.57;;;5.10;;
2299;SDS011;1158;48.750;9.078;2022-08-25T11:01:34;5.50;;;4.67;;
2299;SDS011;1158;48.750;9.078;2022-08-25T11:04:11;4.87;;;4.30;;
2299;SDS011;1158;48.750;9.078;2022-08-25T11:06:41;5.00;;;4.30;;
2299;SDS011;1158;48.750;9.078;2022-08-25T11:09:15;4.40;;;3.70;;
2299;SDS011;1158;48.750;9.078;2022-08-25T11:11:51;5.77;;;5.07;;
2299;SDS011;1158;48.750;9.078;2022-08-25T11:14:22;5.27;;;4.07;;
2299;SDS011;1158;48.750;9.078;2022-08-25T11:16:56;4.00;;;3.60;;
2299;SDS011;1158;48.750;9.078;2022-08-25T11:19:29;4.17;;;3.77;;
2299;SDS011;1158;48.750;9.078;2022-08-25T11:22:01;3.80;;;3.40;;
2299;SDS011;1158;48.750;9.078;2022-08-25T11:24:40;5.10;;;3.60;;
2299;SDS011;1158;48.750;9.078;2022-08-25T11:27:14;7.90;;;3.70;;
2299;SDS011;1158;48.750;9.078;2022-08-25T11:29:48;4.37;;;3.90;;
2299;SDS011;1158;48.750;9.078;2022-08-25T11:32:23;4.83;;;3.53;;
2299;SDS011;1158;48.750;9.078;2022-08-25T11:34:51;5.03;;;4.20;;
2299;SDS011;1158;48.750;9.078;2022-08-25T11:37:19;8.50;;;4.40;;
2299;SDS011;1158;48.750;9.078;2022-08-25T11:42:59;6.50;;;4.13;;
2299;SDS011;1158;48.750;9.078;2022-08-25T11:45:38;4.80;;;4.30;;
2299;SDS011;1158;48.750;9.078;2022-08-25T11:48:16;4.37;;;3.97;;
2299;SDS011;1158;48.750;9.078;2022-08-25T11:53:37;4.83;;;4.33;;
2299;SDS011;1158;48.750;9.078;2022-08-25T11:56:07;4.40;;;3.83;;
2299;SDS011;1158;48.750;9.078;2022-08-25T11:58:41;4.87;;;3.67;;
2299;SDS011;1158;48.750;9.078;2022-08-25T12:01:11;4.03;;;3.47;;
2299;SDS011;1158;48.750;9.078;2022-08-25T12:04:09;7.93;;;3.70;;
2299;SDS011;1158;48.750;9.078;2022-08-25T12:07:14;4.33;;;3.93;;
2299;SDS011;1158;48.750;9.078;2022-08-25T12:12:56;4.10;;;3.47;;
2299;SDS011;1158;48.750;9.078;2022-08-25T12:15:26;4.77;;;4.00;;
2299;SDS011;1158;48.750;9.078;2022-08-25T12:18:08;4.67;;;4.13;;
2299;SDS011;1158;48.750;9.078;2022-08-25T12:23:39;4.37;;;3.50;;
2299;SDS011;1158;48.750;9.078;2022-08-25T12:26:07;7.17;;;4.00;;
2299;SDS011;1158;48.750;9.078;2022-08-25T12:28:45;6.17;;;3.97;;
2299;SDS011;1158;48.750;9.078;2022-08-25T12:31:20;3.57;;;3.27;;
2299;SDS011;1158;48.750;9.078;2022-08-25T12:34:00;6.07;;;3.20;;
2299;SDS011;1158;48.750;9.078;2022-08-25T12:36:37;4.07;;;3.17;;
2299;SDS011;1158;48.750;9.078;2022-08-25T12:39:13;3.73;;;3.33;;
2299;SDS011;1158;48.750;9.078;2022-08-25T12:41:51;3.97;;;3.37;;
2299;SDS011;1158;48.750;9.078;2022-08-25T12:44:36;4.50;;;3.97;;
2299;SDS011;1158;48.750;9.078;2022-08-25T12:47:06;3.87;;;3.40;;
2299;SDS011;1158;48.750;9.078;2022-08-25T12:49:39;5.83;;;4.17;;
2299;SDS011;1158;48.750;9.078;2022-08-25T12:52:06;4.47;;;3.47;;
2299;SDS011;1158;48.750;9.078;2022-08-25T12:54:42;4.10;;;3.70;;
2299;SDS011;1158;48.750;9.078;2022-08-25T12:57:24;4.50;;;3.20;;
2299;SDS011;1158;48.750;9.078;2022-08-25T13:00:05;3.60;;;3.00;;
2299;SDS011;1158;48.750;9.078;2022-08-25T13:05:55;3.80;;;3.40;;
2299;SDS011;1158;48.750;9.078;2022-08-25T13:08:37;5.40;;;3.33;;
2299;SDS011;1158;48.750;9.078;2022-08-25T13:11:22;7.17;;;3.10;;
2299;SDS011;1158;48.750;9.078;2022-08-25T13:13:55;3.30;;;3.00;;
2299;SDS011;1158;48.750;9.078;2022-08-25T13:16:29;4.67;;;3.00;;
2299;SDS011;1158;48.750;9.078;2022-08-25T13:18:57;5.57;;;3.23;;
2299;SDS011;1158;48.750;9.078;2022-08-25T13:21:29;4.33;;;3.27;;
2299;SDS011;1158;48.750;9.078;2022-08-25T13:24:00;5.10;;;3.37;;
2299;SDS011;1158;48.750;9.078;2022-08-25T13:26:29;5.53;;;3.27;;
2299;SDS011;1158;48.750;9.078;2022-08-25T13:28:59;3.87;;;3.20;;
2299;SDS011;1158;48.750;9.078;2022-08-25T13:31:27;4.00;;;3.50;;
2299;SDS011;1158;48.750;9.078;2022-08-25T13:33:55;3.67;;;3.23;;
2299;SDS011;1158;48.750;9.078;2022-08-25T13:36:24;6.00;;;3.20;;
2299;SDS011;1158;48.750;9.078;2022-08-25T13:39:10;3.67;;;3.03;;
2299;SDS011;1158;48.750;9.078;2022-08-25T13:41:44;5.40;;;3.03;;
2299;SDS011;1158;48.750;9.078;2022-08-25T13:44:13;3.30;;;3.00;;
2299;SDS011;1158;48.750;9.078;2022-08-25T13:46:40;3.77;;;2.67;;
2299;SDS011;1158;48.750;9.078;2022-08-25T13:49:08;4.50;;;3.27;;
2299;SDS011;1158;48.750;9.078;2022-08-25T13:51:35;4.03;;;2.90;;
2299;SDS011;1158;48.750;9.078;2022-08-25T13:54:04;3.20;;;2.90;;
2299;SDS011;1158;48.750;9.078;2022-08-25T13:56:34;3.93;;;3.00;;
2299;SDS011;1158;48.750;9.078;2022-08-25T13:59:04;3.53;;;3.23;;
2299;SDS011;1158;48.750;9.078;2022-08-25T14:01:42;3.50;;;3.20;;
2299;SDS011;1158;48.750;9.078;2022-08-25T14:04:21;3.90;;;3.30;;
2299;SDS011;1158;48.750;9.078;2022-08-25T14:07:07;3.53;;;3.20;;
2299;SDS011;1158;48.750;9.078;2022-08-25T14:09:39;4.20;;;3.20;;
2299;SDS011;1158;48.750;9.078;2022-08-25T14:12:24;4.70;;;3.07;;
2299;SDS011;1158;48.750;9.078;2022-08-25T14:14:58;3.50;;;3.00;;
2299;SDS011;1158;48.750;9.078;2022-08-25T14:17:28;3.70;;;2.60;;
2299;SDS011;1158;48.750;9.078;2022-08-25T14:19:56;3.33;;;3.00;;
2299;SDS011;1158;48.750;9.078;2022-08-25T14:22:23;3.87;;;2.80;;
2299;SDS011;1158;48.750;9.078;2022-08-25T14:24:50;7.63;;;3.27;;
2299;SDS011;1158;48.750;9.078;2022-08-25T14:27:18;3.83;;;2.70;;
2299;SDS011;1158;48.750;9.078;2022-08-25T14:29:46;3.93;;;3.10;;
2299;SDS011;1158;48.750;9.078;2022-08-25T14:32:14;3.67;;;2.73;;
2299;SDS011;1158;48.750;9.078;2022-08-25T14:34:41;3.20;;;2.80;;
2299;SDS011;1158;48.750;9.078;2022-08-25T14:37:09;5.80;;;2.90;;
2299;SDS011;1158;48.750;9.078;2022-08-25T14:39:38;4.90;;;2.73;;
2299;SDS011;1158;48.750;9.078;2022-08-25T14:42:05;4.30;;;2.77;;
2299;SDS011;1158;48.750;9.078;2022-08-25T14:44:32;4.10;;;3.17;;
2299;SDS011;1158;48.750;9.078;2022-08-25T14:46:59;3.90;;;2.57;;
2299;SDS011;1158;48.750;9.078;2022-08-25T14:49:29;4.50;;;2.90;;
2299;SDS011;1158;48.750;9.078;2022-08-25T14:51:59;6.50;;;2.87;;
2299;SDS011;1158;48.750;9.078;2022-08-25T14:54:32;3.10;;;2.70;;
2299;SDS011;1158;48.750;9.078;2022-08-25T14:56:59;3.80;;;3.27;;
2299;SDS011;1158;48.750;9.078;2022-08-25T14:59:25;4.43;;;2.90;;
2299;SDS011;1158;48.750;9.078;2022-08-25T15:01:52;4.17;;;2.90;;
2299;SDS011;1158;48.750;9.078;2022-08-25T15:04:20;7.53;;;3.43;;
2299;SDS011;1158;48.750;9.078;2022-08-25T15:06:52;4.33;;;3.07;;
2299;SDS011;1158;48.750;9.078;2022-08-25T15:09:21;4.40;;;3.27;;
2299;SDS011;1158;48.750;9.078;2022-08-25T15:11:48;3.60;;;2.90;;
2299;SDS011;1158;48.750;9.078;2022-08-25T15:14:16;3.43;;;2.90;;
2299;SDS011;1158;48.750;9.078;2022-08-25T15:16:47;3.97;;;2.77;;
2299;SDS011;1158;48.750;9.078;2022-08-25T15:19:16;3.10;;;2.80;;
2299;SDS011;1158;48.750;9.078;2022-08-25T15:21:44;2.80;;;2.20;;
2299;SDS011;1158;48.750;9.078;2022-08-25T15:24:13;5.00;;;2.70;;
2299;SDS011;1158;48.750;9.078;2022-08-25T15:26:42;4.93;;;3.10;;
2299;SDS011;1158;48.750;9.078;2022-08-25T15:29:12;4.00;;;2.80;;
2299;SDS011;1158;48.750;9.078;2022-08-25T15:31:39;4.07;;;3.57;;
2299;SDS011;1158;48.750;9.078;2022-08-25T15:34:06;4.63;;;3.20;;
2299;SDS011;1158;48.750;9.078;2022-08-25T15:36:33;3.73;;;2.43;;
2299;SDS011;1158;48.750;9.078;2022-08-25T15:39:02;3.80;;;3.20;;
2299;SDS011;1158;48.750;9.078;2022-08-25T15:41:31;3.80;;;3.10;;
2299;SDS011;1158;48.750;9.078;2022-08-25T15:43:58;3.50;;;2.67;;
2299;SDS011;1158;48.750;9.078;2022-08-25T15:46:25;3.77;;;2.53;;
2299;SDS011;1158;48.750;9.078;2022-08-25T15:48:54;2.90;;;2.50;;
2299;SDS011;1158;48.750;9.078;2022-08-25T15:51:21;3.67;;;2.70;;